sensor_id;sensor_type;location;lat;lon;timestamp;P1;durP1;ratioP1;P2;durP2;ratioP2
13973;SDS011;7060;43.770;4.008;2023-08-21T00:00:05;6.07;;;4.03;;
13973;SDS011;7060;43.770;4.008;2023-08-21T00:02:38;10.52;;;4.25;;
13973;SDS011;7060;43.770;4.008;2023-08-21T00:05:07;8.10;;;4.15;;
13973;SDS011;7060;43.770;4.008;2023-08-21T00:07:37;5.32;;;3.90;;
13973;SDS011;7060;43.770;4.008;2023-08-21T00:10:06;6.40;;;4.00;;
13973;SDS011;7060;43.770;4.008;2023-08-21T00:12:36;6.75;;;4.22;;
13973;SDS011;7060;43.770;4.008;2023-08-21T00:15:09;7.50;;;3.97;;
13973;SDS011;7060;43.770;4.008;2023-08-21T00:17:39;7.78;;;4.35;;
13973;SDS011;7060;43.770;4.008;2023-08-21T00:20:09;7.15;;;4.45;;
13973;SDS011;7060;43.770;4.008;2023-08-21T00:22:38;6.93;;;4.10;;
13973;SDS011;7060;43.770;4.008;2023-08-21T00:25:07;4.47;;;3.80;;
13973;SDS011;7060;43.770;4.008;2023-08-21T00:27:36;8.90;;;4.00;;
13973;SDS011;7060;43.770;4.008;2023-08-21T00:30:06;7.75;;;4.57;;
13973;SDS011;7060;43.770;4.008;2023-08-21T00:32:35;4.70;;;4.22;;
13973;SDS011;7060;43.770;4.008;2023-08-21T00:35:06;11.13;;;4.07;;
13973;SDS011;7060;43.770;4.008;2023-08-21T00:37:35;8.93;;;3.97;;
13973;SDS011;7060;43.770;4.008;2023-08-21T00:40:05;7.63;;;3.97;;
13973;SDS011;7060;43.770;4.008;2023-08-21T00:42:34;6.30;;;4.47;;
13973;SDS011;7060;43.770;4.008;2023-08-21T00:45:04;4.75;;;3.70;;
13973;SDS011;7060;43.770;4.008;2023-08-21T00:47:35;8.45;;;4.07;;
13973;SDS011;7060;43.770;4.008;2023-08-21T00:50:06;7.20;;;4.07;;
13973;SDS011;7060;43.770;4.008;2023-08-21T00:52:36;6.10;;;4.30;;
13973;SDS011;7060;43.770;4.008;2023-08-21T00:55:06;12.88;;;4.25;;
13973;SDS011;7060;43.770;4.008;2023-08-21T00:57:36;5.10;;;4.28;;
13973;SDS011;7060;43.770;4.008;2023-08-21T01:00:06;8.40;;;4.07;;
13973;SDS011;7060;43.770;4.008;2023-08-21T01:02:37;6.82;;;4.20;;
13973;SDS011;7060;43.770;4.008;2023-08-21T01:05:12;6.47;;;4.55;;
13973;SDS011;7060;43.770;4.008;2023-08-21T01:07:43;8.55;;;4.28;;
13973;SDS011;7060;43.770;4.008;2023-08-21T01:10:20;7.20;;;3.95;;
13973;SDS011;7060;43.770;4.008;2023-08-21T01:12:55;9.38;;;4.93;;
13973;SDS011;7060;43.770;4.008;2023-08-21T01:15:29;8.73;;;4.88;;
13973;SDS011;7060;43.770;4.008;2023-08-21T01:17:59;8.32;;;4.53;;
13973;SDS011;7060;43.770;4.008;2023-08-21T01:20:30;8.95;;;3.80;;
13973;SDS011;7060;43.770;4.008;2023-08-21T01:23:02;5.50;;;3.90;;
13973;SDS011;7060;43.770;4.008;2023-08-21T01:25:34;5.68;;;4.47;;
13973;SDS011;7060;43.770;4.008;2023-08-21T01:28:02;6.18;;;4.68;;
13973;SDS011;7060;43.770;4.008;2023-08-21T01:30:32;5.97;;;4.85;;
13973;SDS011;7060;43.770;4.008;2023-08-21T01:33:05;9.95;;;4.68;;
13973;SDS011;7060;43.770;4.008;2023-08-21T01:35:38;6.32;;;4.68;;
13973;SDS011;7060;43.770;4.008;2023-08-21T01:38:06;7.07;;;4.28;;
13973;SDS011;7060;43.770;4.008;2023-08-21T01:40:37;4.93;;;4.25;;
13973;SDS011;7060;43.770;4.008;2023-08-21T01:43:06;7.93;;;5.40;;
13973;SDS011;7060;43.770;4.008;2023-08-21T01:45:35;5.57;;;4.40;;
13973;SDS011;7060;43.770;4.008;2023-08-21T01:48:05;7.10;;;4.78;;
13973;SDS011;7060;43.770;4.008;2023-08-21T01:50:35;6.40;;;4.83;;
13973;SDS011;7060;43.770;4.008;2023-08-21T01:53:04;7.25;;;4.75;;
13973;SDS011;7060;43.770;4.008;2023-08-21T01:55:32;4.93;;;4.40;;
13973;SDS011;7060;43.770;4.008;2023-08-21T01:58:03;5.78;;;4.35;;
13973;SDS011;7060;43.770;4.008;2023-08-21T02:00:32;7.18;;;3.92;;
13973;SDS011;7060;43.770;4.008;2023-08-21T02:03:01;6.93;;;4.30;;
13973;SDS011;7060;43.770;4.008;2023-08-21T02:05:30;5.82;;;4.80;;
13973;SDS011;7060;43.770;4.008;2023-08-21T02:07:59;7.20;;;4.97;;
13973;SDS011;7060;43.770;4.008;2023-08-21T02:10:28;7.60;;;4.72;;
13973;SDS011;7060;43.770;4.008;2023-08-21T02:12:56;6.57;;;4.57;;
13973;SDS011;7060;43.770;4.008;2023-08-21T02:15:27;5.78;;;4.68;;
13973;SDS011;7060;43.770;4.008;2023-08-21T02:17:56;8.63;;;4.60;;
13973;SDS011;7060;43.770;4.008;2023-08-21T02:20:24;8.55;;;4.80;;
13973;SDS011;7060;43.770;4.008;2023-08-21T02:22:53;5.37;;;4.57;;
13973;SDS011;7060;43.770;4.008;2023-08-21T02:25:30;7.07;;;4.67;;
13973;SDS011;7060;43.770;4.008;2023-08-21T02:28:00;7.03;;;4.60;;
13973;SDS011;7060;43.770;4.008;2023-08-21T02:30:32;6.70;;;5.23;;
13973;SDS011;7060;43.770;4.008;2023-08-21T02:33:01;9.43;;;4.87;;
13973;SDS011;7060;43.770;4.008;2023-08-21T02:35:31;7.23;;;5.23;;
13973;SDS011;7060;43.770;4.008;2023-08-21T02:38:00;8.35;;;5.18;;
13973;SDS011;7060;43.770;4.008;2023-08-21T02:40:29;11.60;;;5.00;;
13973;SDS011;7060;43.770;4.008;2023-08-21T02:42:58;6.30;;;4.77;;
13973;SDS011;7060;43.770;4.008;2023-08-21T02:45:27;7.93;;;5.10;;
13973;SDS011;7060;43.770;4.008;2023-08-21T02:47:58;6.47;;;5.47;;
13973;SDS011;7060;43.770;4.008;2023-08-21T02:50:27;5.93;;;4.50;;
13973;SDS011;7060;43.770;4.008;2023-08-21T02:52:56;6.07;;;5.33;;
13973;SDS011;7060;43.770;4.008;2023-08-21T02:55:25;6.80;;;5.23;;
13973;SDS011;7060;43.770;4.008;2023-08-21T02:57:54;6.23;;;4.70;;
13973;SDS011;7060;43.770;4.008;2023-08-21T03:00:23;7.90;;;5.30;;
13973;SDS011;7060;43.770;4.008;2023-08-21T03:02:52;5.90;;;5.13;;
13973;SDS011;7060;43.770;4.008;2023-08-21T03:05:22;6.13;;;5.53;;
13973;SDS011;7060;43.770;4.008;2023-08-21T03:07:51;8.93;;;5.33;;
13973;SDS011;7060;43.770;4.008;2023-08-21T03:10:20;5.57;;;4.97;;
13973;SDS011;7060;43.770;4.008;2023-08-21T03:12:50;6.93;;;6.07;;
13973;SDS011;7060;43.770;4.008;2023-08-21T03:15:19;8.30;;;5.80;;
13973;SDS011;7060;43.770;4.008;2023-08-21T03:17:48;7.80;;;5.17;;
13973;SDS011;7060;43.770;4.008;2023-08-21T03:20:17;6.20;;;4.87;;
13973;SDS011;7060;43.770;4.008;2023-08-21T03:22:47;8.03;;;5.33;;
13973;SDS011;7060;43.770;4.008;2023-08-21T03:25:17;9.60;;;5.47;;
13973;SDS011;7060;43.770;4.008;2023-08-21T03:27:45;12.13;;;5.53;;
13973;SDS011;7060;43.770;4.008;2023-08-21T03:30:16;10.67;;;5.80;;
13973;SDS011;7060;43.770;4.008;2023-08-21T03:32:45;7.90;;;5.90;;
13973;SDS011;7060;43.770;4.008;2023-08-21T03:35:14;7.70;;;5.33;;
13973;SDS011;7060;43.770;4.008;2023-08-21T03:37:45;7.40;;;5.43;;
13973;SDS011;7060;43.770;4.008;2023-08-21T03:40:16;13.47;;;6.03;;
13973;SDS011;7060;43.770;4.008;2023-08-21T03:42:46;11.00;;;5.40;;
13973;SDS011;7060;43.770;4.008;2023-08-21T03:45:14;10.83;;;6.70;;
13973;SDS011;7060;43.770;4.008;2023-08-21T03:47:45;7.83;;;6.20;;
13973;SDS011;7060;43.770;4.008;2023-08-21T03:50:18;6.13;;;5.60;;
13973;SDS011;7060;43.770;4.008;2023-08-21T03:52:48;9.50;;;6.07;;
13973;SDS011;7060;43.770;4.008;2023-08-21T03:55:18;6.77;;;5.97;;
13973;SDS011;7060;43.770;4.008;2023-08-21T03:57:46;7.83;;;5.83;;
13973;SDS011;7060;43.770;4.008;2023-08-21T04:00:15;8.87;;;5.57;;
13973;SDS011;7060;43.770;4.008;2023-08-21T04:02:48;10.97;;;5.83;;
13973;SDS011;7060;43.770;4.008;2023-08-21T04:05:17;9.07;;;5.43;;
13973;SDS011;7060;43.770;4.008;2023-08-21T04:07:46;9.33;;;6.03;;
13973;SDS011;7060;43.770;4.008;2023-08-21T04:10:23;8.50;;;5.70;;
13973;SDS011;7060;43.770;4.008;2023-08-21T04:12:55;6.97;;;6.00;;
13973;SDS011;7060;43.770;4.008;2023-08-21T04:15:24;8.40;;;5.83;;
13973;SDS011;7060;43.770;4.008;2023-08-21T04:17:53;8.70;;;6.03;;
13973;SDS011;7060;43.770;4.008;2023-08-21T04:20:22;7.87;;;6.23;;
13973;SDS011;7060;43.770;4.008;2023-08-21T04:22:51;9.70;;;6.43;;
13973;SDS011;7060;43.770;4.008;2023-08-21T04:25:20;9.30;;;6.40;;
13973;SDS011;7060;43.770;4.008;2023-08-21T04:27:50;6.67;;;5.73;;
13973;SDS011;7060;43.770;4.008;2023-08-21T04:30:20;6.93;;;5.73;;
13973;SDS011;7060;43.770;4.008;2023-08-21T04:32:49;8.87;;;6.07;;
13973;SDS011;7060;43.770;4.008;2023-08-21T04:35:18;7.23;;;6.13;;
13973;SDS011;7060;43.770;4.008;2023-08-21T04:37:47;9.70;;;5.87;;
13973;SDS011;7060;43.770;4.008;2023-08-21T04:40:18;9.97;;;6.27;;
13973;SDS011;7060;43.770;4.008;2023-08-21T04:42:50;18.70;;;7.50;;
13973;SDS011;7060;43.770;4.008;2023-08-21T04:45:21;28.33;;;8.13;;
13973;SDS011;7060;43.770;4.008;2023-08-21T04:47:50;12.27;;;6.40;;
13973;SDS011;7060;43.770;4.008;2023-08-21T04:50:21;14.77;;;6.07;;
13973;SDS011;7060;43.770;4.008;2023-08-21T04:52:49;13.33;;;6.70;;
13973;SDS011;7060;43.770;4.008;2023-08-21T04:55:18;9.63;;;6.40;;
13973;SDS011;7060;43.770;4.008;2023-08-21T04:57:47;12.60;;;6.47;;
13973;SDS011;7060;43.770;4.008;2023-08-21T05:00:18;12.33;;;6.70;;
13973;SDS011;7060;43.770;4.008;2023-08-21T05:02:47;7.23;;;6.40;;
13973;SDS011;7060;43.770;4.008;2023-08-21T05:05:16;8.90;;;6.57;;
13973;SDS011;7060;43.770;4.008;2023-08-21T05:07:45;12.27;;;7.23;;
13973;SDS011;7060;43.770;4.008;2023-08-21T05:10:14;11.50;;;7.43;;
13973;SDS011;7060;43.770;4.008;2023-08-21T05:12:44;7.20;;;6.23;;
13973;SDS011;7060;43.770;4.008;2023-08-21T05:15:13;6.90;;;6.10;;
13973;SDS011;7060;43.770;4.008;2023-08-21T05:17:44;9.50;;;6.53;;
13973;SDS011;7060;43.770;4.008;2023-08-21T05:20:13;9.57;;;6.97;;
13973;SDS011;7060;43.770;4.008;2023-08-21T05:22:43;10.47;;;7.40;;
13973;SDS011;7060;43.770;4.008;2023-08-21T05:25:12;12.90;;;7.00;;
13973;SDS011;7060;43.770;4.008;2023-08-21T05:27:41;20.33;;;7.07;;
13973;SDS011;7060;43.770;4.008;2023-08-21T05:30:10;12.70;;;6.53;;
13973;SDS011;7060;43.770;4.008;2023-08-21T05:32:40;15.07;;;6.70;;
13973;SDS011;7060;43.770;4.008;2023-08-21T05:35:11;10.70;;;6.63;;
13973;SDS011;7060;43.770;4.008;2023-08-21T05:37:41;11.67;;;6.10;;
13973;SDS011;7060;43.770;4.008;2023-08-21T05:40:11;7.90;;;6.90;;
13973;SDS011;7060;43.770;4.008;2023-08-21T05:42:40;7.00;;;6.17;;
13973;SDS011;7060;43.770;4.008;2023-08-21T05:45:09;10.23;;;6.57;;
13973;SDS011;7060;43.770;4.008;2023-08-21T05:47:38;7.27;;;6.50;;
13973;SDS011;7060;43.770;4.008;2023-08-21T05:50:07;8.17;;;5.93;;
13973;SDS011;7060;43.770;4.008;2023-08-21T05:52:39;11.43;;;6.43;;
13973;SDS011;7060;43.770;4.008;2023-08-21T05:55:09;6.77;;;6.07;;
13973;SDS011;7060;43.770;4.008;2023-08-21T05:57:38;13.30;;;7.37;;
13973;SDS011;7060;43.770;4.008;2023-08-21T06:00:07;17.00;;;6.67;;
13973;SDS011;7060;43.770;4.008;2023-08-21T06:02:43;9.60;;;6.23;;
13973;SDS011;7060;43.770;4.008;2023-08-21T06:05:29;12.77;;;6.57;;
13973;SDS011;7060;43.770;4.008;2023-08-21T06:08:00;7.80;;;6.07;;
13973;SDS011;7060;43.770;4.008;2023-08-21T06:10:30;7.33;;;5.83;;
13973;SDS011;7060;43.770;4.008;2023-08-21T06:12:59;7.97;;;6.10;;
13973;SDS011;7060;43.770;4.008;2023-08-21T06:15:29;8.10;;;6.60;;
13973;SDS011;7060;43.770;4.008;2023-08-21T06:17:58;9.13;;;5.97;;
13973;SDS011;7060;43.770;4.008;2023-08-21T06:20:28;8.30;;;5.47;;
13973;SDS011;7060;43.770;4.008;2023-08-21T06:22:57;11.73;;;6.70;;
13973;SDS011;7060;43.770;4.008;2023-08-21T06:25:27;7.47;;;6.72;;
13973;SDS011;7060;43.770;4.008;2023-08-21T06:27:57;10.00;;;7.30;;
13973;SDS011;7060;43.770;4.008;2023-08-21T06:30:26;9.27;;;6.78;;
13973;SDS011;7060;43.770;4.008;2023-08-21T06:32:55;9.63;;;6.57;;
13973;SDS011;7060;43.770;4.008;2023-08-21T06:35:25;9.10;;;7.40;;
13973;SDS011;7060;43.770;4.008;2023-08-21T06:37:54;10.35;;;7.63;;
13973;SDS011;7060;43.770;4.008;2023-08-21T06:40:23;11.52;;;9.27;;
13973;SDS011;7060;43.770;4.008;2023-08-21T06:42:53;10.52;;;9.45;;
13973;SDS011;7060;43.770;4.008;2023-08-21T06:45:26;11.48;;;9.68;;
13973;SDS011;7060;43.770;4.008;2023-08-21T06:47:58;10.65;;;9.18;;
13973;SDS011;7060;43.770;4.008;2023-08-21T06:50:27;15.27;;;9.23;;
13973;SDS011;7060;43.770;4.008;2023-08-21T06:52:56;10.07;;;9.15;;
13973;SDS011;7060;43.770;4.008;2023-08-21T06:55:25;10.95;;;8.63;;
13973;SDS011;7060;43.770;4.008;2023-08-21T06:57:55;9.88;;;7.35;;
13973;SDS011;7060;43.770;4.008;2023-08-21T07:00:24;7.78;;;7.05;;
13973;SDS011;7060;43.770;4.008;2023-08-21T07:02:53;7.82;;;7.22;;
13973;SDS011;7060;43.770;4.008;2023-08-21T07:05:22;7.95;;;7.20;;
13973;SDS011;7060;43.770;4.008;2023-08-21T07:07:51;7.15;;;6.45;;
13973;SDS011;7060;43.770;4.008;2023-08-21T07:10:20;7.10;;;6.40;;
13973;SDS011;7060;43.770;4.008;2023-08-21T07:12:49;11.10;;;6.88;;
13973;SDS011;7060;43.770;4.008;2023-08-21T07:15:20;7.32;;;6.63;;
13973;SDS011;7060;43.770;4.008;2023-08-21T07:17:49;7.40;;;6.63;;
13973;SDS011;7060;43.770;4.008;2023-08-21T07:20:18;8.23;;;7.47;;
13973;SDS011;7060;43.770;4.008;2023-08-21T07:22:46;7.28;;;6.45;;
13973;SDS011;7060;43.770;4.008;2023-08-21T07:25:16;7.05;;;6.28;;
13973;SDS011;7060;43.770;4.008;2023-08-21T07:27:46;9.65;;;6.80;;
13973;SDS011;7060;43.770;4.008;2023-08-21T07:30:16;9.20;;;7.05;;
13973;SDS011;7060;43.770;4.008;2023-08-21T07:32:46;10.52;;;7.07;;
13973;SDS011;7060;43.770;4.008;2023-08-21T07:35:16;8.60;;;7.65;;
13973;SDS011;7060;43.770;4.008;2023-08-21T07:37:45;8.30;;;6.05;;
13973;SDS011;7060;43.770;4.008;2023-08-21T07:40:13;6.40;;;5.70;;
13973;SDS011;7060;43.770;4.008;2023-08-21T07:42:42;10.68;;;6.10;;
13973;SDS011;7060;43.770;4.008;2023-08-21T07:45:11;7.72;;;6.15;;
13973;SDS011;7060;43.770;4.008;2023-08-21T07:47:40;7.45;;;6.10;;
13973;SDS011;7060;43.770;4.008;2023-08-21T07:50:10;9.55;;;6.03;;
13973;SDS011;7060;43.770;4.008;2023-08-21T07:52:41;10.65;;;6.60;;
13973;SDS011;7060;43.770;4.008;2023-08-21T07:55:09;9.25;;;6.65;;
13973;SDS011;7060;43.770;4.008;2023-08-21T07:57:40;7.93;;;5.63;;
13973;SDS011;7060;43.770;4.008;2023-08-21T08:00:10;7.20;;;6.25;;
13973;SDS011;7060;43.770;4.008;2023-08-21T08:02:40;10.70;;;6.05;;
13973;SDS011;7060;43.770;4.008;2023-08-21T08:05:11;8.13;;;6.60;;
13973;SDS011;7060;43.770;4.008;2023-08-21T08:07:40;8.45;;;6.35;;
13973;SDS011;7060;43.770;4.008;2023-08-21T08:10:09;8.32;;;6.70;;
13973;SDS011;7060;43.770;4.008;2023-08-21T08:12:40;8.75;;;6.53;;
13973;SDS011;7060;43.770;4.008;2023-08-21T08:15:12;12.48;;;6.75;;
13973;SDS011;7060;43.770;4.008;2023-08-21T08:17:41;6.80;;;6.15;;
13973;SDS011;7060;43.770;4.008;2023-08-21T08:20:12;7.70;;;6.32;;
13973;SDS011;7060;43.770;4.008;2023-08-21T08:22:43;9.60;;;6.75;;
13973;SDS011;7060;43.770;4.008;2023-08-21T08:25:14;10.73;;;6.60;;
13973;SDS011;7060;43.770;4.008;2023-08-21T08:27:44;7.10;;;5.47;;
13973;SDS011;7060;43.770;4.008;2023-08-21T08:30:13;6.45;;;5.90;;
13973;SDS011;7060;43.770;4.008;2023-08-21T08:32:47;9.27;;;5.78;;
13973;SDS011;7060;43.770;4.008;2023-08-21T08:35:20;10.27;;;6.65;;
13973;SDS011;7060;43.770;4.008;2023-08-21T08:37:51;9.98;;;6.05;;
13973;SDS011;7060;43.770;4.008;2023-08-21T08:40:20;5.90;;;5.32;;
13973;SDS011;7060;43.770;4.008;2023-08-21T08:42:50;11.75;;;6.90;;
13973;SDS011;7060;43.770;4.008;2023-08-21T08:47:59;8.77;;;5.95;;
13973;SDS011;7060;43.770;4.008;2023-08-21T08:50:33;8.07;;;4.68;;
13973;SDS011;7060;43.770;4.008;2023-08-21T08:53:03;6.45;;;5.03;;
13973;SDS011;7060;43.770;4.008;2023-08-21T08:55:44;5.28;;;4.68;;
13973;SDS011;7060;43.770;4.008;2023-08-21T08:58:14;7.43;;;5.00;;
13973;SDS011;7060;43.770;4.008;2023-08-21T09:00:43;8.10;;;5.72;;
13973;SDS011;7060;43.770;4.008;2023-08-21T09:03:13;8.43;;;5.03;;
13973;SDS011;7060;43.770;4.008;2023-08-21T09:05:45;8.98;;;5.15;;
13973;SDS011;7060;43.770;4.008;2023-08-21T09:08:15;9.02;;;5.18;;
13973;SDS011;7060;43.770;4.008;2023-08-21T09:10:44;7.35;;;4.68;;
13973;SDS011;7060;43.770;4.008;2023-08-21T09:13:19;6.70;;;5.25;;
13973;SDS011;7060;43.770;4.008;2023-08-21T09:15:52;6.65;;;5.10;;
13973;SDS011;7060;43.770;4.008;2023-08-21T09:18:23;8.85;;;5.38;;
13973;SDS011;7060;43.770;4.008;2023-08-21T09:20:54;8.85;;;5.55;;
13973;SDS011;7060;43.770;4.008;2023-08-21T09:23:25;9.40;;;5.82;;
13973;SDS011;7060;43.770;4.008;2023-08-21T09:25:58;9.18;;;5.28;;
13973;SDS011;7060;43.770;4.008;2023-08-21T09:28:27;5.95;;;5.28;;
13973;SDS011;7060;43.770;4.008;2023-08-21T09:30:56;9.90;;;5.40;;
13973;SDS011;7060;43.770;4.008;2023-08-21T09:33:30;8.00;;;5.63;;
13973;SDS011;7060;43.770;4.008;2023-08-21T09:36:03;8.95;;;5.60;;
13973;SDS011;7060;43.770;4.008;2023-08-21T09:38:34;9.45;;;6.55;;
13973;SDS011;7060;43.770;4.008;2023-08-21T09:41:04;8.20;;;5.43;;
13973;SDS011;7060;43.770;4.008;2023-08-21T09:43:37;9.77;;;6.07;;
13973;SDS011;7060;43.770;4.008;2023-08-21T09:46:13;8.23;;;5.75;;
13973;SDS011;7060;43.770;4.008;2023-08-21T09:48:54;6.93;;;6.20;;
13973;SDS011;7060;43.770;4.008;2023-08-21T09:51:26;10.25;;;9.18;;
13973;SDS011;7060;43.770;4.008;2023-08-21T09:53:56;9.15;;;6.60;;
13973;SDS011;7060;43.770;4.008;2023-08-21T09:56:27;13.05;;;10.73;;
13973;SDS011;7060;43.770;4.008;2023-08-21T09:58:57;8.90;;;6.07;;
13973;SDS011;7060;43.770;4.008;2023-08-21T10:01:30;9.80;;;5.60;;
13973;SDS011;7060;43.770;4.008;2023-08-21T10:04:18;7.65;;;6.00;;
13973;SDS011;7060;43.770;4.008;2023-08-21T10:06:55;8.98;;;6.07;;
13973;SDS011;7060;43.770;4.008;2023-08-21T10:09:29;11.45;;;6.63;;
13973;SDS011;7060;43.770;4.008;2023-08-21T10:11:59;12.30;;;6.18;;
13973;SDS011;7060;43.770;4.008;2023-08-21T10:14:28;9.27;;;6.43;;
13973;SDS011;7060;43.770;4.008;2023-08-21T10:16:57;9.68;;;6.05;;
13973;SDS011;7060;43.770;4.008;2023-08-21T10:19:30;7.90;;;7.00;;
13973;SDS011;7060;43.770;4.008;2023-08-21T10:22:01;8.93;;;6.35;;
13973;SDS011;7060;43.770;4.008;2023-08-21T10:24:33;12.52;;;6.50;;
13973;SDS011;7060;43.770;4.008;2023-08-21T10:27:06;7.95;;;6.35;;
13973;SDS011;7060;43.770;4.008;2023-08-21T10:29:35;9.95;;;6.03;;
13973;SDS011;7060;43.770;4.008;2023-08-21T10:32:04;7.15;;;6.40;;
13973;SDS011;7060;43.770;4.008;2023-08-21T10:34:34;8.95;;;6.03;;
13973;SDS011;7060;43.770;4.008;2023-08-21T10:37:07;9.02;;;6.07;;
13973;SDS011;7060;43.770;4.008;2023-08-21T10:39:53;7.95;;;5.63;;
13973;SDS011;7060;43.770;4.008;2023-08-21T10:42:39;7.32;;;6.20;;
13973;SDS011;7060;43.770;4.008;2023-08-21T10:45:10;15.32;;;6.03;;
13973;SDS011;7060;43.770;4.008;2023-08-21T10:47:39;7.60;;;5.60;;
13973;SDS011;7060;43.770;4.008;2023-08-21T10:50:08;12.15;;;6.53;;
13973;SDS011;7060;43.770;4.008;2023-08-21T10:52:39;11.07;;;6.30;;
13973;SDS011;7060;43.770;4.008;2023-08-21T10:55:12;6.80;;;5.53;;
13973;SDS011;7060;43.770;4.008;2023-08-21T10:57:41;7.88;;;5.72;;
13973;SDS011;7060;43.770;4.008;2023-08-21T11:00:11;6.22;;;5.35;;
13973;SDS011;7060;43.770;4.008;2023-08-21T11:02:42;8.43;;;6.03;;
13973;SDS011;7060;43.770;4.008;2023-08-21T11:05:12;12.25;;;6.90;;
13973;SDS011;7060;43.770;4.008;2023-08-21T11:07:44;9.43;;;5.70;;
13973;SDS011;7060;43.770;4.008;2023-08-21T11:10:14;13.60;;;6.80;;
13973;SDS011;7060;43.770;4.008;2023-08-21T11:12:49;9.43;;;6.00;;
13973;SDS011;7060;43.770;4.008;2023-08-21T11:15:18;12.73;;;6.40;;
13973;SDS011;7060;43.770;4.008;2023-08-21T11:17:56;10.95;;;6.03;;
13973;SDS011;7060;43.770;4.008;2023-08-21T11:20:27;9.57;;;5.80;;
13973;SDS011;7060;43.770;4.008;2023-08-21T11:22:58;13.10;;;6.85;;
13973;SDS011;7060;43.770;4.008;2023-08-21T11:25:29;11.43;;;10.40;;
13973;SDS011;7060;43.770;4.008;2023-08-21T11:27:59;9.00;;;6.22;;
13973;SDS011;7060;43.770;4.008;2023-08-21T11:30:31;11.88;;;4.97;;
13973;SDS011;7060;43.770;4.008;2023-08-21T11:33:06;15.43;;;5.70;;
13973;SDS011;7060;43.770;4.008;2023-08-21T11:35:36;12.05;;;5.25;;
13973;SDS011;7060;43.770;4.008;2023-08-21T11:38:12;16.73;;;6.22;;
13973;SDS011;7060;43.770;4.008;2023-08-21T11:40:50;15.13;;;5.50;;
13973;SDS011;7060;43.770;4.008;2023-08-21T11:43:20;14.90;;;4.93;;
13973;SDS011;7060;43.770;4.008;2023-08-21T11:45:49;14.35;;;5.03;;
13973;SDS011;7060;43.770;4.008;2023-08-21T11:48:25;14.73;;;6.15;;
13973;SDS011;7060;43.770;4.008;2023-08-21T11:50:54;13.75;;;5.32;;
13973;SDS011;7060;43.770;4.008;2023-08-21T11:53:34;12.27;;;5.45;;
13973;SDS011;7060;43.770;4.008;2023-08-21T11:56:08;10.10;;;5.07;;
13973;SDS011;7060;43.770;4.008;2023-08-21T11:58:39;14.18;;;4.82;;
13973;SDS011;7060;43.770;4.008;2023-08-21T12:01:09;12.48;;;5.43;;
13973;SDS011;7060;43.770;4.008;2023-08-21T12:08:23;13.82;;;5.55;;
13973;SDS011;7060;43.770;4.008;2023-08-21T12:10:54;16.00;;;5.18;;
13973;SDS011;7060;43.770;4.008;2023-08-21T12:13:23;11.93;;;5.18;;
13973;SDS011;7060;43.770;4.008;2023-08-21T12:15:55;15.05;;;5.45;;
13973;SDS011;7060;43.770;4.008;2023-08-21T12:18:24;14.02;;;5.53;;
13973;SDS011;7060;43.770;4.008;2023-08-21T12:20:52;11.45;;;5.50;;
13973;SDS011;7060;43.770;4.008;2023-08-21T12:23:21;15.45;;;5.57;;
13973;SDS011;7060;43.770;4.008;2023-08-21T12:25:50;9.38;;;4.63;;
13973;SDS011;7060;43.770;4.008;2023-08-21T12:28:20;12.68;;;4.95;;
13973;SDS011;7060;43.770;4.008;2023-08-21T12:30:49;17.23;;;5.43;;
13973;SDS011;7060;43.770;4.008;2023-08-21T12:33:18;15.13;;;5.57;;
13973;SDS011;7060;43.770;4.008;2023-08-21T12:35:50;12.80;;;5.25;;
13973;SDS011;7060;43.770;4.008;2023-08-21T12:38:19;19.40;;;5.90;;
13973;SDS011;7060;43.770;4.008;2023-08-21T12:40:50;11.32;;;5.20;;
13973;SDS011;7060;43.770;4.008;2023-08-21T12:43:21;19.60;;;5.68;;
13973;SDS011;7060;43.770;4.008;2023-08-21T12:45:51;16.35;;;5.43;;
13973;SDS011;7060;43.770;4.008;2023-08-21T12:48:19;18.95;;;5.45;;
13973;SDS011;7060;43.770;4.008;2023-08-21T12:50:48;17.55;;;5.15;;
13973;SDS011;7060;43.770;4.008;2023-08-21T12:53:18;15.00;;;5.63;;
13973;SDS011;7060;43.770;4.008;2023-08-21T12:55:47;16.98;;;5.30;;
13973;SDS011;7060;43.770;4.008;2023-08-21T12:58:16;16.52;;;5.50;;
13973;SDS011;7060;43.770;4.008;2023-08-21T13:00:47;12.32;;;5.93;;
13973;SDS011;7060;43.770;4.008;2023-08-21T13:03:16;18.83;;;5.85;;
13973;SDS011;7060;43.770;4.008;2023-08-21T13:05:45;14.57;;;5.53;;
13973;SDS011;7060;43.770;4.008;2023-08-21T13:08:14;21.48;;;5.97;;
13973;SDS011;7060;43.770;4.008;2023-08-21T13:10:43;14.80;;;4.70;;
13973;SDS011;7060;43.770;4.008;2023-08-21T13:13:13;17.67;;;4.55;;
13973;SDS011;7060;43.770;4.008;2023-08-21T13:15:42;17.35;;;4.97;;
13973;SDS011;7060;43.770;4.008;2023-08-21T13:18:15;12.68;;;4.68;;
13973;SDS011;7060;43.770;4.008;2023-08-21T13:20:44;14.00;;;5.20;;
13973;SDS011;7060;43.770;4.008;2023-08-21T13:23:14;8.80;;;4.78;;
13973;SDS011;7060;43.770;4.008;2023-08-21T13:25:42;14.70;;;5.15;;
13973;SDS011;7060;43.770;4.008;2023-08-21T13:28:12;18.52;;;4.75;;
13973;SDS011;7060;43.770;4.008;2023-08-21T13:30:41;14.20;;;4.88;;
13973;SDS011;7060;43.770;4.008;2023-08-21T13:33:10;16.10;;;4.70;;
13973;SDS011;7060;43.770;4.008;2023-08-21T13:35:40;13.10;;;5.10;;
13973;SDS011;7060;43.770;4.008;2023-08-21T13:38:09;18.15;;;4.90;;
13973;SDS011;7060;43.770;4.008;2023-08-21T13:40:46;19.45;;;5.45;;
13973;SDS011;7060;43.770;4.008;2023-08-21T13:43:31;12.95;;;5.03;;
13973;SDS011;7060;43.770;4.008;2023-08-21T13:46:00;19.50;;;4.75;;
13973;SDS011;7060;43.770;4.008;2023-08-21T13:48:30;11.00;;;4.78;;
13973;SDS011;7060;43.770;4.008;2023-08-21T13:51:01;15.02;;;5.35;;
13973;SDS011;7060;43.770;4.008;2023-08-21T13:53:30;12.77;;;4.15;;
13973;SDS011;7060;43.770;4.008;2023-08-21T13:55:59;16.58;;;4.80;;
13973;SDS011;7060;43.770;4.008;2023-08-21T13:58:28;14.00;;;4.47;;
13973;SDS011;7060;43.770;4.008;2023-08-21T14:00:57;18.00;;;4.57;;
13973;SDS011;7060;43.770;4.008;2023-08-21T14:03:26;21.25;;;4.78;;
13973;SDS011;7060;43.770;4.008;2023-08-21T14:05:55;20.40;;;12.63;;
13973;SDS011;7060;43.770;4.008;2023-08-21T14:08:26;15.48;;;5.20;;
13973;SDS011;7060;43.770;4.008;2023-08-21T14:10:55;17.58;;;4.20;;
13973;SDS011;7060;43.770;4.008;2023-08-21T14:13:24;17.02;;;4.50;;
13973;SDS011;7060;43.770;4.008;2023-08-21T14:15:52;12.10;;;3.90;;
13973;SDS011;7060;43.770;4.008;2023-08-21T14:18:21;12.18;;;4.53;;
13973;SDS011;7060;43.770;4.008;2023-08-21T14:20:50;15.23;;;4.15;;
13973;SDS011;7060;43.770;4.008;2023-08-21T14:23:19;11.55;;;4.25;;
13973;SDS011;7060;43.770;4.008;2023-08-21T14:25:49;13.52;;;3.95;;
13973;SDS011;7060;43.770;4.008;2023-08-21T14:28:19;17.40;;;3.72;;
13973;SDS011;7060;43.770;4.008;2023-08-21T14:30:47;12.93;;;3.45;;
13973;SDS011;7060;43.770;4.008;2023-08-21T14:33:19;16.33;;;4.47;;
13973;SDS011;7060;43.770;4.008;2023-08-21T14:35:48;18.40;;;3.97;;
13973;SDS011;7060;43.770;4.008;2023-08-21T14:38:17;12.50;;;3.97;;
13973;SDS011;7060;43.770;4.008;2023-08-21T14:40:46;14.05;;;3.83;;
13973;SDS011;7060;43.770;4.008;2023-08-21T14:43:17;11.57;;;4.47;;
13973;SDS011;7060;43.770;4.008;2023-08-21T14:45:47;9.85;;;3.92;;
13973;SDS011;7060;43.770;4.008;2023-08-21T14:48:16;16.23;;;4.00;;
13973;SDS011;7060;43.770;4.008;2023-08-21T14:50:46;13.27;;;3.95;;
13973;SDS011;7060;43.770;4.008;2023-08-21T14:53:15;8.07;;;3.67;;
13973;SDS011;7060;43.770;4.008;2023-08-21T14:55:44;12.18;;;3.35;;
13973;SDS011;7060;43.770;4.008;2023-08-21T14:58:13;11.93;;;4.35;;
13973;SDS011;7060;43.770;4.008;2023-08-21T15:00:43;8.98;;;3.65;;
13973;SDS011;7060;43.770;4.008;2023-08-21T15:03:13;12.27;;;3.35;;
13973;SDS011;7060;43.770;4.008;2023-08-21T15:05:42;14.00;;;4.15;;
13973;SDS011;7060;43.770;4.008;2023-08-21T15:08:11;8.90;;;3.65;;
13973;SDS011;7060;43.770;4.008;2023-08-21T15:10:40;10.05;;;4.30;;
13973;SDS011;7060;43.770;4.008;2023-08-21T15:13:09;12.07;;;4.20;;
13973;SDS011;7060;43.770;4.008;2023-08-21T15:15:38;11.85;;;4.43;;
13973;SDS011;7060;43.770;4.008;2023-08-21T15:18:09;15.23;;;4.18;;
13973;SDS011;7060;43.770;4.008;2023-08-21T15:20:37;12.65;;;3.88;;